sensor_id;sensor_type;location;lat;lon;timestamp;temperature;humidity
31129;DHT22;17777;48.770;8.944;2023-11-21T00:00:31;14.10;56.10
31129;DHT22;17777;48.770;8.944;2023-11-21T00:02:57;14.10;56.00
31129;DHT22;17777;48.770;8.944;2023-11-21T00:05:23;14.10;56.00
31129;DHT22;17777;48.770;8.944;2023-11-21T00:07:49;14.10;56.00
31129;DHT22;17777;48.770;8.944;2023-11-21T00:10:14;14.10;56.10
31129;DHT22;17777;48.770;8.944;2023-11-21T00:12:41;14.00;56.00
31129;DHT22;17777;48.770;8.944;2023-11-21T00:15:08;14.00;56.10
31129;DHT22;17777;48.770;8.944;2023-11-21T00:17:38;14.00;56.10
31129;DHT22;17777;48.770;8.944;2023-11-21T00:20:05;13.90;56.10
31129;DHT22;17777;48.770;8.944;2023-11-21T00:22:33;13.90;56.20
31129;DHT22;17777;48.770;8.944;2023-11-21T00:25:00;13.80;56.30
31129;DHT22;17777;48.770;8.944;2023-11-21T00:27:25;13.80;56.40
31129;DHT22;17777;48.770;8.944;2023-11-21T00:29:51;13.80;56.40
31129;DHT22;17777;48.770;8.944;2023-11-21T00:32:17;13.80;56.50
31129;DHT22;17777;48.770;8.944;2023-11-21T00:34:43;13.80;56.70
31129;DHT22;17777;48.770;8.944;2023-11-21T00:37:09;13.70;56.70
31129;DHT22;17777;48.770;8.944;2023-11-21T00:39:35;13.70;56.70
31129;DHT22;17777;48.770;8.944;2023-11-21T00:42:01;13.70;56.80
31129;DHT22;17777;48.770;8.944;2023-11-21T00:44:26;13.70;56.80
31129;DHT22;17777;48.770;8.944;2023-11-21T00:46:52;13.70;56.80
31129;DHT22;17777;48.770;8.944;2023-11-21T00:49:18;13.70;56.90
31129;DHT22;17777;48.770;8.944;2023-11-21T00:51:44;13.70;57.00
31129;DHT22;17777;48.770;8.944;2023-11-21T00:54:10;13.70;56.90
31129;DHT22;17777;48.770;8.944;2023-11-21T00:56:36;13.70;57.00
31129;DHT22;17777;48.770;8.944;2023-11-21T00:59:02;13.70;57.10
31129;DHT22;17777;48.770;8.944;2023-11-21T01:01:30;13.70;57.20
31129;DHT22;17777;48.770;8.944;2023-11-21T01:03:56;13.70;57.20
31129;DHT22;17777;48.770;8.944;2023-11-21T01:06:22;13.70;57.10
31129;DHT22;17777;48.770;8.944;2023-11-21T01:08:47;13.60;57.10
31129;DHT22;17777;48.770;8.944;2023-11-21T01:11:13;13.60;57.10
31129;DHT22;17777;48.770;8.944;2023-11-21T01:13:39;13.60;57.20
31129;DHT22;17777;48.770;8.944;2023-11-21T01:16:06;13.50;57.30
31129;DHT22;17777;48.770;8.944;2023-11-21T01:18:34;13.60;57.50
31129;DHT22;17777;48.770;8.944;2023-11-21T01:21:00;13.60;57.50
31129;DHT22;17777;48.770;8.944;2023-11-21T01:23:26;13.60;57.60
31129;DHT22;17777;48.770;8.944;2023-11-21T01:25:54;13.60;57.50
31129;DHT22;17777;48.770;8.944;2023-11-21T01:28:21;13.60;57.50
31129;DHT22;17777;48.770;8.944;2023-11-21T01:30:48;13.60;57.50
31129;DHT22;17777;48.770;8.944;2023-11-21T01:33:14;13.60;57.60
31129;DHT22;17777;48.770;8.944;2023-11-21T01:35:44;13.60;57.60
31129;DHT22;17777;48.770;8.944;2023-11-21T01:38:12;13.60;57.80
31129;DHT22;17777;48.770;8.944;2023-11-21T01:40:38;13.60;57.70
31129;DHT22;17777;48.770;8.944;2023-11-21T01:43:04;13.60;57.60
31129;DHT22;17777;48.770;8.944;2023-11-21T01:45:30;13.60;57.60
31129;DHT22;17777;48.770;8.944;2023-11-21T01:47:59;13.60;57.50
31129;DHT22;17777;48.770;8.944;2023-11-21T01:50:26;13.60;57.60
31129;DHT22;17777;48.770;8.944;2023-11-21T01:52:53;13.60;57.80
31129;DHT22;17777;48.770;8.944;2023-11-21T01:55:20;13.50;57.70
31129;DHT22;17777;48.770;8.944;2023-11-21T01:57:46;13.50;57.80
31129;DHT22;17777;48.770;8.944;2023-11-21T02:00:12;13.60;57.90
31129;DHT22;17777;48.770;8.944;2023-11-21T02:02:48;13.60;58.00
31129;DHT22;17777;48.770;8.944;2023-11-21T02:05:16;13.60;58.20
31129;DHT22;17777;48.770;8.944;2023-11-21T02:07:45;13.60;57.90
31129;DHT22;17777;48.770;8.944;2023-11-21T02:10:16;13.60;57.90
31129;DHT22;17777;48.770;8.944;2023-11-21T02:12:42;13.60;57.90
31129;DHT22;17777;48.770;8.944;2023-11-21T02:15:13;13.60;57.90
31129;DHT22;17777;48.770;8.944;2023-11-21T02:17:46;13.60;58.00
31129;DHT22;17777;48.770;8.944;2023-11-21T02:20:17;13.60;57.90
31129;DHT22;17777;48.770;8.944;2023-11-21T02:22:53;13.60;57.90
31129;DHT22;17777;48.770;8.944;2023-11-21T02:25:24;13.60;58.30
31129;DHT22;17777;48.770;8.944;2023-11-21T02:27:51;13.70;58.00
31129;DHT22;17777;48.770;8.944;2023-11-21T02:30:17;13.60;58.00
31129;DHT22;17777;48.770;8.944;2023-11-21T02:32:44;13.70;58.00
31129;DHT22;17777;48.770;8.944;2023-11-21T02:35:10;13.70;58.00
31129;DHT22;17777;48.770;8.944;2023-11-21T02:37:37;13.70;58.00
31129;DHT22;17777;48.770;8.944;2023-11-21T02:40:04;13.70;58.00
31129;DHT22;17777;48.770;8.944;2023-11-21T02:42:33;13.70;58.00
31129;DHT22;17777;48.770;8.944;2023-11-21T02:44:59;13.70;58.00
31129;DHT22;17777;48.770;8.944;2023-11-21T02:47:25;13.70;57.90
31129;DHT22;17777;48.770;8.944;2023-11-21T02:49:51;13.70;57.90
31129;DHT22;17777;48.770;8.944;2023-11-21T02:52:18;13.70;57.90
31129;DHT22;17777;48.770;8.944;2023-11-21T02:54:54;13.60;57.90
31129;DHT22;17777;48.770;8.944;2023-11-21T02:57:20;13.70;57.90
31129;DHT22;17777;48.770;8.944;2023-11-21T03:02:53;13.60;57.90
31129;DHT22;17777;48.770;8.944;2023-11-21T03:05:20;13.60;58.50
31129;DHT22;17777;48.770;8.944;2023-11-21T03:07:46;13.60;58.00
31129;DHT22;17777;48.770;8.944;2023-11-21T03:10:12;13.60;58.00
31129;DHT22;17777;48.770;8.944;2023-11-21T03:12:39;13.60;58.20
31129;DHT22;17777;48.770;8.944;2023-11-21T03:15:06;13.50;58.20
31129;DHT22;17777;48.770;8.944;2023-11-21T03:17:33;13.50;58.20
31129;DHT22;17777;48.770;8.944;2023-11-21T03:20:03;13.60;58.10
31129;DHT22;17777;48.770;8.944;2023-11-21T03:22:29;13.60;58.00
31129;DHT22;17777;48.770;8.944;2023-11-21T03:24:55;13.50;57.90
31129;DHT22;17777;48.770;8.944;2023-11-21T03:27:21;13.50;58.10
31129;DHT22;17777;48.770;8.944;2023-11-21T03:29:48;13.50;58.20
31129;DHT22;17777;48.770;8.944;2023-11-21T03:32:15;13.50;58.30
31129;DHT22;17777;48.770;8.944;2023-11-21T03:34:56;13.50;58.30
31129;DHT22;17777;48.770;8.944;2023-11-21T03:37:23;13.60;58.30
31129;DHT22;17777;48.770;8.944;2023-11-21T03:39:50;13.50;58.10
31129;DHT22;17777;48.770;8.944;2023-11-21T03:42:16;13.60;58.20
31129;DHT22;17777;48.770;8.944;2023-11-21T03:44:42;13.60;58.30
31129;DHT22;17777;48.770;8.944;2023-11-21T03:47:08;13.60;58.30
31129;DHT22;17777;48.770;8.944;2023-11-21T03:49:34;13.60;58.40
31129;DHT22;17777;48.770;8.944;2023-11-21T03:52:00;13.60;58.40
31129;DHT22;17777;48.770;8.944;2023-11-21T03:54:26;13.60;58.40
31129;DHT22;17777;48.770;8.944;2023-11-21T03:56:51;13.60;58.30
31129;DHT22;17777;48.770;8.944;2023-11-21T03:59:17;13.70;58.40
31129;DHT22;17777;48.770;8.944;2023-11-21T04:01:43;13.70;58.40
31129;DHT22;17777;48.770;8.944;2023-11-21T04:04:09;13.70;58.40
31129;DHT22;17777;48.770;8.944;2023-11-21T04:06:35;13.80;58.40
31129;DHT22;17777;48.770;8.944;2023-11-21T04:09:01;13.80;58.40
31129;DHT22;17777;48.770;8.944;2023-11-21T04:11:27;13.80;58.30
31129;DHT22;17777;48.770;8.944;2023-11-21T04:13:55;13.90;58.30
31129;DHT22;17777;48.770;8.944;2023-11-21T04:16:21;13.90;58.20
31129;DHT22;17777;48.770;8.944;2023-11-21T04:18:46;13.90;58.10
31129;DHT22;17777;48.770;8.944;2023-11-21T04:21:12;13.90;58.00
31129;DHT22;17777;48.770;8.944;2023-11-21T04:23:38;13.90;58.00
31129;DHT22;17777;48.770;8.944;2023-11-21T04:26:05;13.90;58.00
31129;DHT22;17777;48.770;8.944;2023-11-21T04:28:31;13.90;58.00
31129;DHT22;17777;48.770;8.944;2023-11-21T04:30:57;13.90;58.00
31129;DHT22;17777;48.770;8.944;2023-11-21T04:33:23;13.90;58.60
31129;DHT22;17777;48.770;8.944;2023-11-21T04:35:49;14.00;57.90
31129;DHT22;17777;48.770;8.944;2023-11-21T04:38:15;13.90;57.80
31129;DHT22;17777;48.770;8.944;2023-11-21T04:40:41;13.90;57.90
31129;DHT22;17777;48.770;8.944;2023-11-21T04:43:07;13.90;58.00
31129;DHT22;17777;48.770;8.944;2023-11-21T04:45:32;13.90;58.00
31129;DHT22;17777;48.770;8.944;2023-11-21T04:47:58;13.90;58.00
31129;DHT22;17777;48.770;8.944;2023-11-21T04:50:24;13.90;58.10
31129;DHT22;17777;48.770;8.944;2023-11-21T04:52:52;13.90;58.10
31129;DHT22;17777;48.770;8.944;2023-11-21T04:55:18;13.90;58.10
31129;DHT22;17777;48.770;8.944;2023-11-21T04:57:45;14.00;58.10
31129;DHT22;17777;48.770;8.944;2023-11-21T05:00:12;14.00;58.10
31129;DHT22;17777;48.770;8.944;2023-11-21T05:02:40;14.00;58.00
31129;DHT22;17777;48.770;8.944;2023-11-21T05:05:07;14.00;58.10
31129;DHT22;17777;48.770;8.944;2023-11-21T05:07:35;14.00;58.10
31129;DHT22;17777;48.770;8.944;2023-11-21T05:10:02;14.00;58.10
31129;DHT22;17777;48.770;8.944;2023-11-21T05:12:36;14.00;58.00
31129;DHT22;17777;48.770;8.944;2023-11-21T05:15:04;14.00;57.90
31129;DHT22;17777;48.770;8.944;2023-11-21T05:17:36;14.00;57.90
31129;DHT22;17777;48.770;8.944;2023-11-21T05:20:03;14.00;57.90
31129;DHT22;17777;48.770;8.944;2023-11-21T05:22:30;14.00;57.80
31129;DHT22;17777;48.770;8.944;2023-11-21T05:24:56;14.00;57.90
31129;DHT22;17777;48.770;8.944;2023-11-21T05:27:22;13.90;57.90
31129;DHT22;17777;48.770;8.944;2023-11-21T05:29:47;13.90;57.90
31129;DHT22;17777;48.770;8.944;2023-11-21T05:32:13;13.90;57.90
31129;DHT22;17777;48.770;8.944;2023-11-21T05:34:39;13.90;57.90
31129;DHT22;17777;48.770;8.944;2023-11-21T05:37:05;13.80;57.90
31129;DHT22;17777;48.770;8.944;2023-11-21T05:39:31;13.80;57.90
31129;DHT22;17777;48.770;8.944;2023-11-21T05:41:57;13.80;58.00
31129;DHT22;17777;48.770;8.944;2023-11-21T05:44:23;13.70;57.90
31129;DHT22;17777;48.770;8.944;2023-11-21T05:46:49;13.70;58.00
31129;DHT22;17777;48.770;8.944;2023-11-21T05:49:15;13.70;58.10
31129;DHT22;17777;48.770;8.944;2023-11-21T05:51:42;13.70;58.10
31129;DHT22;17777;48.770;8.944;2023-11-21T05:54:08;13.70;58.10
31129;DHT22;17777;48.770;8.944;2023-11-21T05:56:34;13.70;58.20
31129;DHT22;17777;48.770;8.944;2023-11-21T05:58:59;13.70;58.10
31129;DHT22;17777;48.770;8.944;2023-11-21T06:01:26;13.60;58.10
31129;DHT22;17777;48.770;8.944;2023-11-21T06:03:55;13.60;58.10
31129;DHT22;17777;48.770;8.944;2023-11-21T06:06:21;13.60;58.20
31129;DHT22;17777;48.770;8.944;2023-11-21T06:08:48;13.60;58.30
31129;DHT22;17777;48.770;8.944;2023-11-21T06:11:15;13.60;58.40
31129;DHT22;17777;48.770;8.944;2023-11-21T06:13:41;13.60;58.40
31129;DHT22;17777;48.770;8.944;2023-11-21T06:16:08;13.70;58.40
31129;DHT22;17777;48.770;8.944;2023-11-21T06:18:34;13.70;58.40
31129;DHT22;17777;48.770;8.944;2023-11-21T06:21:00;13.80;58.40
31129;DHT22;17777;48.770;8.944;2023-11-21T06:23:26;13.80;58.40
31129;DHT22;17777;48.770;8.944;2023-11-21T06:25:52;13.90;58.40
31129;DHT22;17777;48.770;8.944;2023-11-21T06:28:18;13.90;58.30
31129;DHT22;17777;48.770;8.944;2023-11-21T06:30:44;13.90;58.30
31129;DHT22;17777;48.770;8.944;2023-11-21T06:33:10;14.00;58.30
31129;DHT22;17777;48.770;8.944;2023-11-21T06:35:36;14.00;58.20
31129;DHT22;17777;48.770;8.944;2023-11-21T06:38:02;14.00;58.20
31129;DHT22;17777;48.770;8.944;2023-11-21T06:40:28;14.00;58.20
31129;DHT22;17777;48.770;8.944;2023-11-21T06:42:54;14.00;58.10
31129;DHT22;17777;48.770;8.944;2023-11-21T06:45:20;14.00;58.10
31129;DHT22;17777;48.770;8.944;2023-11-21T06:47:47;14.00;58.10
31129;DHT22;17777;48.770;8.944;2023-11-21T06:50:13;14.10;58.10
31129;DHT22;17777;48.770;8.944;2023-11-21T06:52:39;14.10;58.10
31129;DHT22;17777;48.770;8.944;2023-11-21T06:55:05;14.10;58.00
31129;DHT22;17777;48.770;8.944;2023-11-21T06:57:33;14.10;57.90
31129;DHT22;17777;48.770;8.944;2023-11-21T06:59:59;14.10;57.90
31129;DHT22;17777;48.770;8.944;2023-11-21T07:02:25;14.10;57.90
31129;DHT22;17777;48.770;8.944;2023-11-21T07:04:51;14.10;58.00
31129;DHT22;17777;48.770;8.944;2023-11-21T07:07:18;14.10;58.00
31129;DHT22;17777;48.770;8.944;2023-11-21T07:09:44;14.00;58.10
31129;DHT22;17777;48.770;8.944;2023-11-21T07:12:10;14.10;58.10
31129;DHT22;17777;48.770;8.944;2023-11-21T07:14:37;14.00;58.10
31129;DHT22;17777;48.770;8.944;2023-11-21T07:17:04;14.00;58.10
31129;DHT22;17777;48.770;8.944;2023-11-21T07:19:30;14.10;58.10
31129;DHT22;17777;48.770;8.944;2023-11-21T07:21:56;14.10;58.10
31129;DHT22;17777;48.770;8.944;2023-11-21T07:24:22;14.10;58.00
31129;DHT22;17777;48.770;8.944;2023-11-21T07:26:50;14.00;58.00
31129;DHT22;17777;48.770;8.944;2023-11-21T07:29:16;14.00;58.00
31129;DHT22;17777;48.770;8.944;2023-11-21T07:31:42;14.00;58.00
31129;DHT22;17777;48.770;8.944;2023-11-21T07:34:07;13.90;58.00
31129;DHT22;17777;48.770;8.944;2023-11-21T07:36:33;13.90;57.90
31129;DHT22;17777;48.770;8.944;2023-11-21T07:38:59;13.90;58.00
31129;DHT22;17777;48.770;8.944;2023-11-21T07:41:27;13.80;58.10
31129;DHT22;17777;48.770;8.944;2023-11-21T07:43:55;13.80;58.20
31129;DHT22;17777;48.770;8.944;2023-11-21T07:46:21;13.80;58.30
31129;DHT22;17777;48.770;8.944;2023-11-21T07:48:47;13.80;58.30
31129;DHT22;17777;48.770;8.944;2023-11-21T07:51:13;13.80;58.40
31129;DHT22;17777;48.770;8.944;2023-11-21T07:53:39;13.80;58.50
31129;DHT22;17777;48.770;8.944;2023-11-21T07:56:06;13.80;58.50
31129;DHT22;17777;48.770;8.944;2023-11-21T07:58:36;13.80;58.40
31129;DHT22;17777;48.770;8.944;2023-11-21T08:01:03;13.80;58.50
31129;DHT22;17777;48.770;8.944;2023-11-21T08:03:29;13.80;58.60
31129;DHT22;17777;48.770;8.944;2023-11-21T08:05:56;13.70;58.60
31129;DHT22;17777;48.770;8.944;2023-11-21T08:08:23;13.80;58.70
31129;DHT22;17777;48.770;8.944;2023-11-21T08:10:50;13.80;58.70
31129;DHT22;17777;48.770;8.944;2023-11-21T08:13:28;13.80;58.70
31129;DHT22;17777;48.770;8.944;2023-11-21T08:15:57;13.80;58.70
31129;DHT22;17777;48.770;8.944;2023-11-21T08:18:29;13.80;58.70
31129;DHT22;17777;48.770;8.944;2023-11-21T08:20:55;13.80;58.70
31129;DHT22;17777;48.770;8.944;2023-11-21T08:23:21;13.80;58.70
31129;DHT22;17777;48.770;8.944;2023-11-21T08:25:54;13.80;58.70
31129;DHT22;17777;48.770;8.944;2023-11-21T08:28:20;13.80;58.70
31129;DHT22;17777;48.770;8.944;2023-11-21T08:30:47;13.80;58.70
31129;DHT22;17777;48.770;8.944;2023-11-21T08:33:13;13.80;58.70
31129;DHT22;17777;48.770;8.944;2023-11-21T08:35:39;13.90;58.70
31129;DHT22;17777;48.770;8.944;2023-11-21T08:38:05;13.80;58.80
31129;DHT22;17777;48.770;8.944;2023-11-21T08:40:31;13.80;58.80
31129;DHT22;17777;48.770;8.944;2023-11-21T08:42:57;13.80;58.80
31129;DHT22;17777;48.770;8.944;2023-11-21T08:45:26;13.80;58.80
31129;DHT22;17777;48.770;8.944;2023-11-21T08:47:52;13.80;58.90
31129;DHT22;17777;48.770;8.944;2023-11-21T08:50:18;13.80;58.90
31129;DHT22;17777;48.770;8.944;2023-11-21T08:52:45;13.80;58.90
31129;DHT22;17777;48.770;8.944;2023-11-21T08:55:12;13.80;59.00
31129;DHT22;17777;48.770;8.944;2023-11-21T08:57:38;13.80;58.90
31129;DHT22;17777;48.770;8.944;2023-11-21T09:00:07;13.80;59.00
31129;DHT22;17777;48.770;8.944;2023-11-21T09:02:37;13.80;59.00
31129;DHT22;17777;48.770;8.944;2023-11-21T09:05:05;13.90;59.00
31129;DHT22;17777;48.770;8.944;2023-11-21T09:07:31;13.90;59.00
31129;DHT22;17777;48.770;8.944;2023-11-21T09:09:57;13.90;59.00
31129;DHT22;17777;48.770;8.944;2023-11-21T09:12:23;13.90;59.00
31129;DHT22;17777;48.770;8.944;2023-11-21T09:14:50;13.90;59.00
31129;DHT22;17777;48.770;8.944;2023-11-21T09:17:16;13.90;59.00
31129;DHT22;17777;48.770;8.944;2023-11-21T09:19:42;13.90;59.00
31129;DHT22;17777;48.770;8.944;2023-11-21T09:22:16;13.90;59.00
31129;DHT22;17777;48.770;8.944;2023-11-21T09:24:42;13.90;59.00
31129;DHT22;17777;48.770;8.944;2023-11-21T09:27:08;13.90;59.10
31129;DHT22;17777;48.770;8.944;2023-11-21T09:29:35;13.90;59.10
31129;DHT22;17777;48.770;8.944;2023-11-21T09:32:05;13.90;59.20
31129;DHT22;17777;48.770;8.944;2023-11-21T09:34:34;13.90;59.30
31129;DHT22;17777;48.770;8.944;2023-11-21T09:37:06;13.90;59.30
31129;DHT22;17777;48.770;8.944;2023-11-21T09:39:32;13.90;59.30
31129;DHT22;17777;48.770;8.944;2023-11-21T09:42:19;13.90;59.30
31129;DHT22;17777;48.770;8.944;2023-11-21T09:47:38;13.90;59.70
31129;DHT22;17777;48.770;8.944;2023-11-21T09:50:05;14.00;59.40
31129;DHT22;17777;48.770;8.944;2023-11-21T09:52:47;14.00;59.50
31129;DHT22;17777;48.770;8.944;2023-11-21T09:55:19;14.00;59.60
31129;DHT22;17777;48.770;8.944;2023-11-21T09:57:47;14.10;59.40
31129;DHT22;17777;48.770;8.944;2023-11-21T10:00:16;14.10;59.40
31129;DHT22;17777;48.770;8.944;2023-11-21T10:02:43;14.20;59.40
31129;DHT22;17777;48.770;8.944;2023-11-21T10:05:09;14.20;59.40
31129;DHT22;17777;48.770;8.944;2023-11-21T10:07:37;14.20;59.30
31129;DHT22;17777;48.770;8.944;2023-11-21T10:10:05;14.20;59.30
31129;DHT22;17777;48.770;8.944;2023-11-21T10:12:35;14.30;59.40
31129;DHT22;17777;48.770;8.944;2023-11-21T10:15:03;14.30;59.40
31129;DHT22;17777;48.770;8.944;2023-11-21T10:17:33;14.30;59.40
31129;DHT22;17777;48.770;8.944;2023-11-21T10:20:07;14.30;59.40
31129;DHT22;17777;48.770;8.944;2023-11-21T10:22:45;14.40;59.30
31129;DHT22;17777;48.770;8.944;2023-11-21T10:25:12;14.40;59.40
31129;DHT22;17777;48.770;8.944;2023-11-21T10:27:40;14.40;59.10
31129;DHT22;17777;48.770;8.944;2023-11-21T10:30:07;14.40;59.10
31129;DHT22;17777;48.770;8.944;2023-11-21T10:32:41;14.40;59.10
31129;DHT22;17777;48.770;8.944;2023-11-21T10:35:10;14.50;59.20
31129;DHT22;17777;48.770;8.944;2023-11-21T10:37:37;14.40;59.30
31129;DHT22;17777;48.770;8.944;2023-11-21T10:40:10;14.50;59.40
31129;DHT22;17777;48.770;8.944;2023-11-21T10:42:39;14.50;59.40
31129;DHT22;17777;48.770;8.944;2023-11-21T10:45:08;14.50;59.30
31129;DHT22;17777;48.770;8.944;2023-11-21T10:47:44;14.50;59.30
31129;DHT22;17777;48.770;8.944;2023-11-21T10:50:10;14.50;60.20
31129;DHT22;17777;48.770;8.944;2023-11-21T10:52:40;14.50;59.00
31129;DHT22;17777;48.770;8.944;2023-11-21T10:55:20;14.50;59.20
31129;DHT22;17777;48.770;8.944;2023-11-21T10:57:49;14.50;59.40
31129;DHT22;17777;48.770;8.944;2023-11-21T11:00:19;14.50;59.20
31129;DHT22;17777;48.770;8.944;2023-11-21T11:02:51;14.50;59.30
31129;DHT22;17777;48.770;8.944;2023-11-21T11:05:20;14.40;59.50
31129;DHT22;17777;48.770;8.944;2023-11-21T11:07:50;14.40;59.40
31129;DHT22;17777;48.770;8.944;2023-11-21T11:10:23;14.40;59.40
31129;DHT22;17777;48.770;8.944;2023-11-21T11:12:51;14.40;59.60
31129;DHT22;17777;48.770;8.944;2023-11-21T11:15:19;14.40;59.50
31129;DHT22;17777;48.770;8.944;2023-11-21T11:17:46;14.30;59.60
31129;DHT22;17777;48.770;8.944;2023-11-21T11:20:14;14.40;59.70
31129;DHT22;17777;48.770;8.944;2023-11-21T11:23:13;14.40;59.80
31129;DHT22;17777;48.770;8.944;2023-11-21T11:28:37;14.40;60.00
31129;DHT22;17777;48.770;8.944;2023-11-21T11:37:03;14.50;59.70
31129;DHT22;17777;48.770;8.944;2023-11-21T11:42:07;14.60;59.80
31129;DHT22;17777;48.770;8.944;2023-11-21T11:47:28;14.60;59.70
31129;DHT22;17777;48.770;8.944;2023-11-21T11:52:54;14.60;59.50
31129;DHT22;17777;48.770;8.944;2023-11-21T11:55:23;14.60;59.50
31129;DHT22;17777;48.770;8.944;2023-11-21T11:57:51;14.60;59.40
31129;DHT22;17777;48.770;8.944;2023-11-21T12:02:55;14.60;59.50
31129;DHT22;17777;48.770;8.944;2023-11-21T12:05:26;14.60;59.60
31129;DHT22;17777;48.770;8.944;2023-11-21T12:07:59;14.60;59.50
31129;DHT22;17777;48.770;8.944;2023-11-21T12:10:29;14.60;59.50
31129;DHT22;17777;48.770;8.944;2023-11-21T12:13:00;14.60;59.60
31129;DHT22;17777;48.770;8.944;2023-11-21T12:15:27;14.60;59.60
31129;DHT22;17777;48.770;8.944;2023-11-21T12:17:57;14.60;59.60
31129;DHT22;17777;48.770;8.944;2023-11-21T12:20:25;14.70;59.70
31129;DHT22;17777;48.770;8.944;2023-11-21T12:22:53;14.70;59.70
31129;DHT22;17777;48.770;8.944;2023-11-21T12:25:28;14.70;59.60
31129;DHT22;17777;48.770;8.944;2023-11-21T12:27:57;14.70;59.70
31129;DHT22;17777;48.770;8.944;2023-11-21T12:30:28;14.80;59.60
31129;DHT22;17777;48.770;8.944;2023-11-21T12:32:57;14.80;59.60
31129;DHT22;17777;48.770;8.944;2023-11-21T12:35:28;14.80;59.60
31129;DHT22;17777;48.770;8.944;2023-11-21T12:37:56;14.80;59.60
31129;DHT22;17777;48.770;8.944;2023-11-21T12:40:25;14.80;59.50
31129;DHT22;17777;48.770;8.944;2023-11-21T12:42:53;14.80;59.60
31129;DHT22;17777;48.770;8.944;2023-11-21T12:45:25;14.80;59.40
31129;DHT22;17777;48.770;8.944;2023-11-21T12:47:59;14.80;59.50
31129;DHT22;17777;48.770;8.944;2023-11-21T12:50:29;14.90;59.50
31129;DHT22;17777;48.770;8.944;2023-11-21T12:53:01;14.90;59.30
31129;DHT22;17777;48.770;8.944;2023-11-21T12:55:43;14.90;59.30
31129;DHT22;17777;48.770;8.944;2023-11-21T12:58:09;14.90;59.20
31129;DHT22;17777;48.770;8.944;2023-11-21T13:00:44;14.90;59.20
31129;DHT22;17777;48.770;8.944;2023-11-21T13:03:13;14.90;59.30
31129;DHT22;17777;48.770;8.944;2023-11-21T13:05:44;14.90;59.30
31129;DHT22;17777;48.770;8.944;2023-11-21T13:08:20;14.90;59.20
31129;DHT22;17777;48.770;8.944;2023-11-21T13:10:51;15.00;59.20
31129;DHT22;17777;48.770;8.944;2023-11-21T13:13:19;14.90;59.30
31129;DHT22;17777;48.770;8.944;2023-11-21T13:15:54;14.90;59.30
31129;DHT22;17777;48.770;8.944;2023-11-21T13:18:24;15.00;59.40
31129;DHT22;17777;48.770;8.944;2023-11-21T13:20:53;15.00;59.20
31129;DHT22;17777;48.770;8.944;2023-11-21T13:23:20;15.00;59.90
31129;DHT22;17777;48.770;8.944;2023-11-21T13:25:46;15.00;59.10
31129;DHT22;17777;48.770;8.944;2023-11-21T13:28:13;15.00;59.10
31129;DHT22;17777;48.770;8.944;2023-11-21T13:30:41;14.90;59.00
31129;DHT22;17777;48.770;8.944;2023-11-21T13:33:08;14.90;59.10
31129;DHT22;17777;48.770;8.944;2023-11-21T13:35:39;14.90;59.00
31129;DHT22;17777;48.770;8.944;2023-11-21T13:38:09;14.90;59.00
31129;DHT22;17777;48.770;8.944;2023-11-21T13:40:38;14.90;59.00
31129;DHT22;17777;48.770;8.944;2023-11-21T13:43:10;15.00;58.80
31129;DHT22;17777;48.770;8.944;2023-11-21T13:45:41;14.90;58.80
31129;DHT22;17777;48.770;8.944;2023-11-21T13:48:09;14.90;58.80
31129;DHT22;17777;48.770;8.944;2023-11-21T13:50:41;14.90;59.00
31129;DHT22;17777;48.770;8.944;2023-11-21T13:53:28;14.80;58.90
31129;DHT22;17777;48.770;8.944;2023-11-21T13:55:54;14.80;59.60
31129;DHT22;17777;48.770;8.944;2023-11-21T13:58:21;14.80;59.00
31129;DHT22;17777;48.770;8.944;2023-11-21T14:01:05;14.80;59.00
31129;DHT22;17777;48.770;8.944;2023-11-21T14:03:31;14.80;59.00
31129;DHT22;17777;48.770;8.944;2023-11-21T14:06:10;14.80;59.10
31129;DHT22;17777;48.770;8.944;2023-11-21T14:08:41;14.90;59.10
31129;DHT22;17777;48.770;8.944;2023-11-21T14:11:08;14.90;59.20
31129;DHT22;17777;48.770;8.944;2023-11-21T14:13:36;14.90;59.20
31129;DHT22;17777;48.770;8.944;2023-11-21T14:16:03;14.90;59.30
31129;DHT22;17777;48.770;8.944;2023-11-21T14:18:32;14.90;59.20
31129;DHT22;17777;48.770;8.944;2023-11-21T14:21:04;14.90;59.20
31129;DHT22;17777;48.770;8.944;2023-11-21T14:23:36;15.00;59.10
31129;DHT22;17777;48.770;8.944;2023-11-21T14:26:04;15.00;59.10
31129;DHT22;17777;48.770;8.944;2023-11-21T14:28:31;15.00;59.10
31129;DHT22;17777;48.770;8.944;2023-11-21T14:30:57;15.00;59.10
31129;DHT22;17777;48.770;8.944;2023-11-21T14:33:23;15.00;59.10
31129;DHT22;17777;48.770;8.944;2023-11-21T14:35:48;15.00;59.00
31129;DHT22;17777;48.770;8.944;2023-11-21T14:38:15;15.00;59.00
31129;DHT22;17777;48.770;8.944;2023-11-21T14:40:41;15.00;59.00
31129;DHT22;17777;48.770;8.944;2023-11-21T14:43:07;15.00;59.00
31129;DHT22;17777;48.770;8.944;2023-11-21T14:45:33;15.00;58.90
31129;DHT22;17777;48.770;8.944;2023-11-21T14:48:01;15.00;59.00
31129;DHT22;17777;48.770;8.944;2023-11-21T14:50:29;15.00;59.00
31129;DHT22;17777;48.770;8.944;2023-11-21T14:53:08;15.00;58.90
31129;DHT22;17777;48.770;8.944;2023-11-21T14:55:35;15.00;58.90
31129;DHT22;17777;48.770;8.944;2023-11-21T14:58:17;15.00;58.80
31129;DHT22;17777;48.770;8.944;2023-11-21T15:00:53;14.90;58.70
31129;DHT22;17777;48.770;8.944;2023-11-21T15:03:27;14.90;58.70
31129;DHT22;17777;48.770;8.944;2023-11-21T15:06:04;14.90;58.70
31129;DHT22;17777;48.770;8.944;2023-11-21T15:08:51;14.80;58.70
31129;DHT22;17777;48.770;8.944;2023-11-21T15:11:32;14.80;58.70
31129;DHT22;17777;48.770;8.944;2023-11-21T15:13:58;14.80;58.70
31129;DHT22;17777;48.770;8.944;2023-11-21T15:16:25;14.70;58.80
31129;DHT22;17777;48.770;8.944;2023-11-21T15:18:52;14.70;58.80
31129;DHT22;17777;48.770;8.944;2023-11-21T15:21:21;14.70;58.80
31129;DHT22;17777;48.770;8.944;2023-11-21T15:23:48;14.70;58.80
31129;DHT22;17777;48.770;8.944;2023-11-21T15:26:14;14.60;58.80
31129;DHT22;17777;48.770;8.944;2023-11-21T15:28:39;14.60;58.90
31129;DHT22;17777;48.770;8.944;2023-11-21T15:31:06;14.60;58.90
31129;DHT22;17777;48.770;8.944;2023-11-21T15:33:33;14.60;59.00
31129;DHT22;17777;48.770;8.944;2023-11-21T15:36:01;14.60;59.00
31129;DHT22;17777;48.770;8.944;2023-11-21T15:38:28;14.60;59.00
31129;DHT22;17777;48.770;8.944;2023-11-21T15:40:54;14.60;59.00
31129;DHT22;17777;48.770;8.944;2023-11-21T15:43:20;14.60;59.10
31129;DHT22;17777;48.770;8.944;2023-11-21T15:45:46;14.60;59.10
31129;DHT22;17777;48.770;8.944;2023-11-21T15:48:12;14.60;59.80
31129;DHT22;17777;48.770;8.944;2023-11-21T15:50:38;14.60;59.10
31129;DHT22;17777;48.770;8.944;2023-11-21T15:53:03;14.50;59.10
31129;DHT22;17777;48.770;8.944;2023-11-21T15:55:30;14.50;59.10
31129;DHT22;17777;48.770;8.944;2023-11-21T15:57:56;14.50;59.00
31129;DHT22;17777;48.770;8.944;2023-11-21T16:00:22;14.50;59.10